createdAt,value
2023-01-19T00:00:58.638Z,68.95
2023-01-19T00:03:25.635Z,68.77
2023-01-19T00:05:52.949Z,68.54
2023-01-19T00:08:20.067Z,68.68
2023-01-19T00:10:49.193Z,68.69
2023-01-19T00:13:16.409Z,68.76
2023-01-19T00:15:45.067Z,68.77
2023-01-19T00:18:12.072Z,68.80
2023-01-19T00:20:42.361Z,69.28
2023-01-19T00:23:09.726Z,69.33
2023-01-19T00:25:43.807Z,69.02
2023-01-19T00:28:15.640Z,68.91
2023-01-19T00:30:44.164Z,68.91
2023-01-19T00:33:16.216Z,69.29
2023-01-19T00:35:43.738Z,69.33
2023-01-19T00:38:11.961Z,68.78
2023-01-19T00:40:38.947Z,69.57
2023-01-19T00:43:05.994Z,69.12
2023-01-19T00:45:33.869Z,69.89
2023-01-19T00:48:00.884Z,69.45
2023-01-19T00:50:29.193Z,68.86
2023-01-19T00:52:58.005Z,70.13
2023-01-19T00:55:25.128Z,69.52
2023-01-19T00:57:52.143Z,69.81
2023-01-19T01:00:20.208Z,70.13
2023-01-19T01:02:48.693Z,69.63
2023-01-19T01:05:16.006Z,70.17
2023-01-19T01:07:44.885Z,70.48
2023-01-19T01:10:21.502Z,70.22
2023-01-19T01:12:55.987Z,70.46
2023-01-19T01:15:26.694Z,70.41
2023-01-19T01:17:54.012Z,70.12
2023-01-19T01:20:25.548Z,70.25
2023-01-19T01:22:57.675Z,70.02
2023-01-19T01:25:26.571Z,70.29
2023-01-19T01:27:54.437Z,70.21
2023-01-19T01:30:21.863Z,69.67
2023-01-19T01:32:49.402Z,70.69
2023-01-19T01:35:16.786Z,70.96
2023-01-19T01:37:43.819Z,70.84
2023-01-19T01:40:17.348Z,71.22
2023-01-19T01:42:45.746Z,71.23
2023-01-19T01:45:35.220Z,70.76
2023-01-19T01:48:14.866Z,70.33
2023-01-19T01:51:09.915Z,70.37
2023-01-19T01:53:37.782Z,70.69
2023-01-19T01:56:09.983Z,70.46
2023-01-19T01:58:39.062Z,69.81
2023-01-19T02:01:26.498Z,69.65
2023-01-19T02:03:57.954Z,69.63
2023-01-19T02:06:26.030Z,69.88
2023-01-19T02:09:29.263Z,70.37
2023-01-19T02:12:15.872Z,69.70
2023-01-19T02:14:42.922Z,69.52
2023-01-19T02:17:09.903Z,69.73
2023-01-19T02:19:42.631Z,69.95
2023-01-19T02:22:32.162Z,70.24
2023-01-19T02:24:59.503Z,69.96
2023-01-19T02:27:26.510Z,69.64
2023-01-19T02:29:53.745Z,69.87
2023-01-19T02:32:20.825Z,70.45
2023-01-19T02:34:47.843Z,69.90
2023-01-19T02:37:18.693Z,70.34
2023-01-19T02:39:58.783Z,70.68
2023-01-19T02:42:27.994Z,71.20
2023-01-19T02:44:56.822Z,70.83
2023-01-19T02:47:24.588Z,71.14
2023-01-19T02:49:59.264Z,71.12
2023-01-19T02:52:27.882Z,70.79
2023-01-19T02:55:15.667Z,70.89
2023-01-19T02:58:07.524Z,70.79
2023-01-19T03:00:43.909Z,70.79
2023-01-19T03:03:31.205Z,70.99
2023-01-19T03:06:21.907Z,70.94
2023-01-19T03:09:25.881Z,70.53
2023-01-19T03:12:04.883Z,70.68
2023-01-19T03:14:33.902Z,70.72
2023-01-19T03:17:05.330Z,70.57
2023-01-19T03:19:40.643Z,70.42
2023-01-19T03:22:13.799Z,69.48
2023-01-19T03:24:43.583Z,69.34
2023-01-19T03:27:24.824Z,69.48
2023-01-19T03:29:59.986Z,69.40
2023-01-19T03:32:36.550Z,69.53
2023-01-19T03:35:10.288Z,69.25
2023-01-19T03:37:42.856Z,69.67
2023-01-19T03:40:11.003Z,70.08
2023-01-19T03:42:39.762Z,70.25
2023-01-19T03:45:09.367Z,70.42
2023-01-19T03:47:36.742Z,70.13
2023-01-19T03:50:09.382Z,69.73
2023-01-19T03:52:36.431Z,69.72
2023-01-19T03:55:05.663Z,69.38
2023-01-19T03:57:32.945Z,69.25
2023-01-19T03:59:59.965Z,69.49
2023-01-19T04:02:27.273Z,69.60
2023-01-19T04:04:54.211Z,69.65
2023-01-19T04:07:21.409Z,69.86
2023-01-19T04:09:48.426Z,70.09
2023-01-19T04:12:15.904Z,70.43
2023-01-19T04:14:42.930Z,68.89
2023-01-19T04:17:10.583Z,68.08
2023-01-19T04:19:37.626Z,66.38
2023-01-19T04:22:05.083Z,65.11
2023-01-19T04:24:32.305Z,64.07
2023-01-19T04:26:59.364Z,63.73
2023-01-19T04:29:26.502Z,61.93
2023-01-19T04:31:53.547Z,60.59
2023-01-19T04:34:20.542Z,59.20
2023-01-19T04:36:51.242Z,59.96
2023-01-19T04:39:18.263Z,59.84
2023-01-19T04:41:45.225Z,58.71
2023-01-19T04:44:12.483Z,59.12
2023-01-19T04:46:39.709Z,58.31
2023-01-19T04:49:06.783Z,57.62
2023-01-19T04:51:34.562Z,57.29
2023-01-19T04:54:02.489Z,56.54
2023-01-19T04:56:30.015Z,57.02
2023-01-19T04:58:57.024Z,56.10
2023-01-19T05:01:25.084Z,55.96
2023-01-19T05:03:52.270Z,56.30
2023-01-19T05:06:19.653Z,55.74
2023-01-19T05:08:46.763Z,55.52
2023-01-19T05:11:13.798Z,54.37
2023-01-19T05:13:40.864Z,53.98
2023-01-19T05:16:08.301Z,52.88
2023-01-19T05:18:37.256Z,53.36
2023-01-19T05:21:04.836Z,52.95
2023-01-19T05:23:33.037Z,52.59
2023-01-19T05:26:03.590Z,52.60
2023-01-19T05:28:32.938Z,52.21
2023-01-19T05:31:00.491Z,52.60
2023-01-19T05:33:28.059Z,52.43
2023-01-19T05:35:55.857Z,52.48
2023-01-19T05:38:34.614Z,52.82
2023-01-19T05:41:03.059Z,52.44
2023-01-19T05:43:30.417Z,50.96
2023-01-19T05:45:57.658Z,51.10
2023-01-19T05:48:24.984Z,51.42
2023-01-19T05:50:52.255Z,51.02
2023-01-19T05:53:19.495Z,50.85
2023-01-19T05:55:46.697Z,51.18
2023-01-19T05:58:13.818Z,52.08
2023-01-19T06:00:41.068Z,51.81
2023-01-19T06:03:08.504Z,51.48
2023-01-19T06:05:38.383Z,50.72
2023-01-19T06:08:05.896Z,51.16
2023-01-19T06:10:33.375Z,51.76
2023-01-19T06:13:00.768Z,50.44
2023-01-19T06:15:28.184Z,50.81
2023-01-19T06:17:55.459Z,50.33
2023-01-19T06:20:22.860Z,50.64
2023-01-19T06:22:50.177Z,50.74
2023-01-19T06:25:17.584Z,50.02
2023-01-19T06:27:45.946Z,49.62
2023-01-19T06:30:14.141Z,50.01
2023-01-19T06:32:41.383Z,49.99
2023-01-19T06:35:09.096Z,50.43
2023-01-19T06:37:37.126Z,50.22
2023-01-19T06:40:04.618Z,50.97
2023-01-19T06:42:31.944Z,51.01
2023-01-19T06:44:59.303Z,51.05
2023-01-19T06:47:26.534Z,50.82
2023-01-19T06:49:54.066Z,50.90
2023-01-19T06:52:21.416Z,50.85
2023-01-19T06:54:48.820Z,50.68
2023-01-19T06:57:17.576Z,50.50
2023-01-19T06:59:44.909Z,48.95
2023-01-19T07:02:26.490Z,49.18
2023-01-19T07:04:56.120Z,48.97
2023-01-19T07:07:23.398Z,49.39
2023-01-19T07:09:53.846Z,48.44
2023-01-19T07:12:22.544Z,49.21
2023-01-19T07:14:49.896Z,48.38
2023-01-19T07:17:17.222Z,47.34
2023-01-19T07:19:44.815Z,47.83
2023-01-19T07:22:12.136Z,48.33
2023-01-19T07:24:39.695Z,47.94
2023-01-19T07:27:06.983Z,47.75
2023-01-19T07:29:34.306Z,47.94
2023-01-19T07:32:01.550Z,48.08
2023-01-19T07:34:28.775Z,48.17
2023-01-19T07:36:59.183Z,48.26
2023-01-19T07:39:26.415Z,47.45
2023-01-19T07:41:53.704Z,46.69
2023-01-19T07:44:23.342Z,46.62
2023-01-19T07:46:51.461Z,46.70
2023-01-19T07:49:18.898Z,46.78
2023-01-19T07:51:46.216Z,47.32
2023-01-19T07:54:13.416Z,47.10
2023-01-19T07:56:40.859Z,47.11
2023-01-19T07:59:09.860Z,46.36
2023-01-19T08:01:38.124Z,46.56
2023-01-19T08:04:06.052Z,46.82
2023-01-19T08:06:35.655Z,47.00
2023-01-19T08:09:05.816Z,46.54
2023-01-19T08:11:33.895Z,46.58
2023-01-19T08:14:01.295Z,46.54
2023-01-19T08:16:28.576Z,46.57
2023-01-19T08:18:55.988Z,46.63
2023-01-19T08:21:23.218Z,46.92
2023-01-19T08:23:57.889Z,47.01
2023-01-19T08:26:32.217Z,46.61
2023-01-19T08:29:02.541Z,46.86
2023-01-19T08:31:30.026Z,46.79
2023-01-19T08:33:57.566Z,46.34
2023-01-19T08:36:25.536Z,46.72
2023-01-19T08:38:52.983Z,46.74
2023-01-19T08:41:20.425Z,46.70
2023-01-19T08:43:47.947Z,47.22
2023-01-19T08:46:21.645Z,46.99
2023-01-19T08:48:49.735Z,46.96
2023-01-19T08:51:17.683Z,46.77
2023-01-19T08:53:44.978Z,47.02
2023-01-19T08:56:15.462Z,47.01
2023-01-19T08:58:45.709Z,47.05
2023-01-19T09:01:23.183Z,47.43
2023-01-19T09:03:50.619Z,47.03
2023-01-19T09:06:19.535Z,46.86
2023-01-19T09:08:47.895Z,47.29
2023-01-19T09:11:16.736Z,46.50
2023-01-19T09:13:44.027Z,46.55
2023-01-19T09:16:13.590Z,46.08
2023-01-19T09:18:41.057Z,46.32
2023-01-19T09:21:09.414Z,47.11
2023-01-19T09:23:36.695Z,46.67
2023-01-19T09:26:05.935Z,46.60
2023-01-19T09:28:33.459Z,46.70
2023-01-19T09:31:05.886Z,46.70
2023-01-19T09:33:33.576Z,46.54
2023-01-19T09:36:02.373Z,46.98
2023-01-19T09:38:33.053Z,46.64
2023-01-19T09:41:00.898Z,46.53
2023-01-19T09:43:58.179Z,46.34
2023-01-19T09:46:28.489Z,46.58
2023-01-19T09:48:58.815Z,46.06
2023-01-19T09:51:29.108Z,46.60
2023-01-19T09:54:41.383Z,45.93
2023-01-19T09:57:12.935Z,46.04
2023-01-19T09:59:41.896Z,46.10
2023-01-19T10:02:36.607Z,45.93
2023-01-19T10:05:14.213Z,45.70
2023-01-19T10:08:14.895Z,44.77
2023-01-19T10:10:47.774Z,44.78
2023-01-19T10:13:44.230Z,45.44
2023-01-19T10:16:38.783Z,44.70
2023-01-19T10:19:30.654Z,45.19
2023-01-19T10:22:00.975Z,45.06
2023-01-19T10:24:33.625Z,45.39
2023-01-19T10:27:01.216Z,44.36
2023-01-19T10:29:38.039Z,44.36
2023-01-19T10:32:21.504Z,44.62
2023-01-19T10:34:50.940Z,44.29
2023-01-19T10:37:18.100Z,44.43
2023-01-19T10:39:55.401Z,44.48
2023-01-19T10:42:22.524Z,44.32
2023-01-19T10:44:50.053Z,43.76
2023-01-19T10:47:23.215Z,43.68
2023-01-19T10:49:50.814Z,43.34
2023-01-19T10:52:32.979Z,43.71
2023-01-19T10:55:03.253Z,43.68
2023-01-19T10:57:38.591Z,44.17
2023-01-19T11:00:27.015Z,43.68
2023-01-19T11:02:54.405Z,43.57
2023-01-19T11:05:25.095Z,44.40
2023-01-19T11:07:52.736Z,43.53
2023-01-19T11:10:23.176Z,43.70
2023-01-19T11:13:13.615Z,44.21
2023-01-19T11:15:51.336Z,44.56
2023-01-19T11:18:28.950Z,45.07
2023-01-19T11:21:01.225Z,44.87
2023-01-19T11:23:34.015Z,44.76
2023-01-19T11:26:05.615Z,44.48
2023-01-19T11:28:45.060Z,43.66
2023-01-19T11:31:15.163Z,44.18
2023-01-19T11:33:50.823Z,43.28
2023-01-19T11:36:27.337Z,43.39
2023-01-19T11:38:57.260Z,43.24
2023-01-19T11:41:47.304Z,43.38
2023-01-19T11:44:25.695Z,42.53
2023-01-19T11:46:59.857Z,42.63
2023-01-19T11:49:47.214Z,43.64
2023-01-19T11:52:27.574Z,42.97
2023-01-19T11:55:20.303Z,42.94
2023-01-19T11:57:51.962Z,42.60
2023-01-19T12:00:29.780Z,42.33
2023-01-19T12:13:27.508Z,44.53
2023-01-19T12:16:09.352Z,45.07
2023-01-19T12:18:48.419Z,46.43
2023-01-19T12:21:15.739Z,46.84
2023-01-19T12:23:51.985Z,46.94
2023-01-19T12:26:42.942Z,47.04
2023-01-19T12:29:17.857Z,47.02
2023-01-19T12:31:45.328Z,47.46
2023-01-19T12:34:39.924Z,46.83
2023-01-19T12:37:29.181Z,46.41
2023-01-19T12:40:00.664Z,46.61
2023-01-19T12:42:29.070Z,46.73
2023-01-19T12:45:09.498Z,47.00
2023-01-19T12:47:37.579Z,47.03
2023-01-19T12:50:13.574Z,46.86
2023-01-19T12:53:00.217Z,46.63
2023-01-19T12:55:31.331Z,46.71
2023-01-19T12:58:27.257Z,46.69
2023-01-19T13:01:16.488Z,46.44
2023-01-19T13:04:09.391Z,46.71
2023-01-19T13:06:48.916Z,46.58
2023-01-19T13:09:30.021Z,46.72
2023-01-19T13:12:21.903Z,47.16
2023-01-19T13:14:51.017Z,46.54
2023-01-19T13:17:42.703Z,47.38
2023-01-19T13:20:25.335Z,47.95
2023-01-19T13:23:01.344Z,48.40
2023-01-19T13:25:33.940Z,47.70
2023-01-19T13:28:02.281Z,47.92
2023-01-19T13:30:30.245Z,47.76
2023-01-19T13:33:05.779Z,48.50
2023-01-19T13:35:33.174Z,48.38
2023-01-19T13:38:01.463Z,48.51
2023-01-19T13:40:41.417Z,47.67
2023-01-19T13:43:18.615Z,48.47
2023-01-19T13:45:53.438Z,49.13
2023-01-19T13:48:23.092Z,48.79
2023-01-19T13:51:19.461Z,50.18
2023-01-19T13:54:03.321Z,49.67
2023-01-19T13:56:30.747Z,50.54
2023-01-19T13:59:17.883Z,50.00
2023-01-19T14:01:46.797Z,49.47
2023-01-19T14:04:31.613Z,49.50
2023-01-19T14:07:05.366Z,49.15
2023-01-19T14:09:32.617Z,49.61
2023-01-19T14:12:13.331Z,49.07
2023-01-19T14:14:42.230Z,48.96
2023-01-19T14:17:35.685Z,48.61
2023-01-19T14:20:02.889Z,49.16
2023-01-19T14:22:46.683Z,49.30
2023-01-19T14:25:30.141Z,49.48
2023-01-19T14:28:43.640Z,49.53
2023-01-19T14:31:22.440Z,49.17
2023-01-19T14:33:55.203Z,49.24
2023-01-19T14:36:29.899Z,49.39
2023-01-19T14:38:59.571Z,49.28
2023-01-19T14:41:49.755Z,49.09
2023-01-19T14:44:28.861Z,48.89
2023-01-19T14:46:56.711Z,48.95
2023-01-19T14:49:35.432Z,49.35
2023-01-19T14:52:06.485Z,49.43
2023-01-19T14:54:38.489Z,49.11
2023-01-19T14:57:09.583Z,49.02
2023-01-19T14:59:36.521Z,49.34
2023-01-19T15:02:03.539Z,49.65
2023-01-19T15:04:30.604Z,47.75
2023-01-19T15:06:57.850Z,47.36
2023-01-19T15:09:25.364Z,47.14
2023-01-19T15:11:53.310Z,46.68
2023-01-19T15:14:21.716Z,46.55
2023-01-19T15:16:49.450Z,47.70
2023-01-19T15:19:17.639Z,48.10
2023-01-19T15:21:46.449Z,48.17
2023-01-19T15:24:16.351Z,48.47
2023-01-19T15:26:44.763Z,48.52
2023-01-19T15:29:24.921Z,48.39
2023-01-19T15:31:52.774Z,48.10
2023-01-19T15:34:19.768Z,47.80
2023-01-19T15:36:46.753Z,47.62
2023-01-19T15:39:13.755Z,47.92
2023-01-19T15:41:40.805Z,48.61
2023-01-19T15:44:10.930Z,48.54
2023-01-19T15:46:39.029Z,50.33
2023-01-19T15:49:06.109Z,51.00
2023-01-19T15:51:33.326Z,52.21
2023-01-19T15:54:00.636Z,51.32
2023-01-19T15:56:31.519Z,52.62
2023-01-19T15:58:59.332Z,52.87
2023-01-19T16:01:32.455Z,53.63
2023-01-19T16:04:05.571Z,53.86
2023-01-19T16:06:34.550Z,54.45
2023-01-19T16:09:01.930Z,54.72
2023-01-19T16:11:31.584Z,54.83
2023-01-19T16:13:58.984Z,55.25
2023-01-19T16:16:28.401Z,55.19
2023-01-19T16:18:55.836Z,55.38
2023-01-19T16:21:23.953Z,55.39
2023-01-19T16:23:51.451Z,55.73
2023-01-19T16:26:29.422Z,55.92
2023-01-19T16:29:11.116Z,56.09
2023-01-19T16:31:39.491Z,56.55
2023-01-19T16:34:06.419Z,57.00
2023-01-19T16:36:35.657Z,57.35
2023-01-19T16:39:07.916Z,57.16
2023-01-19T16:41:35.509Z,57.08
2023-01-19T16:44:03.310Z,57.60
2023-01-19T16:46:38.782Z,58.26
2023-01-19T16:49:17.465Z,57.94
2023-01-19T16:51:45.891Z,58.31
2023-01-19T16:54:14.596Z,58.53
2023-01-19T16:56:42.126Z,58.49
2023-01-19T16:59:12.343Z,58.43
2023-01-19T17:01:39.441Z,58.81
2023-01-19T17:04:06.528Z,58.79
2023-01-19T17:06:33.880Z,59.08
2023-01-19T17:09:00.981Z,59.22
2023-01-19T17:11:30.430Z,59.06
2023-01-19T17:14:00.445Z,59.57
2023-01-19T17:16:29.469Z,59.41
2023-01-19T17:18:58.439Z,59.38
2023-01-19T17:21:26.062Z,59.80
2023-01-19T17:23:54.627Z,59.77
2023-01-19T17:26:23.103Z,59.56
2023-01-19T17:28:50.155Z,59.17
2023-01-19T17:31:20.245Z,58.91
2023-01-19T17:33:49.269Z,58.80
2023-01-19T17:36:22.722Z,58.93
2023-01-19T17:38:50.274Z,58.72
2023-01-19T17:41:22.964Z,58.55
2023-01-19T17:43:51.360Z,58.07
2023-01-19T17:46:20.402Z,57.67
2023-01-19T17:48:59.926Z,57.18
2023-01-19T17:51:28.362Z,57.43
2023-01-19T17:53:55.893Z,56.85
2023-01-19T17:56:30.082Z,56.86
2023-01-19T17:58:58.800Z,57.05
2023-01-19T18:01:29.213Z,56.87
2023-01-19T18:03:57.281Z,56.44
2023-01-19T18:06:24.338Z,56.25
2023-01-19T18:08:52.659Z,56.21
2023-01-19T18:11:21.114Z,56.10
2023-01-19T18:13:50.033Z,55.74
2023-01-19T18:16:25.626Z,56.28
2023-01-19T18:18:54.480Z,56.09
2023-01-19T18:21:22.753Z,56.25
2023-01-19T18:23:51.010Z,55.97
2023-01-19T18:26:22.271Z,55.80
2023-01-19T18:28:49.795Z,55.78
2023-01-19T18:31:19.029Z,56.32
2023-01-19T18:33:47.743Z,56.32
2023-01-19T18:36:15.392Z,56.90
2023-01-19T18:38:43.025Z,57.18
2023-01-19T18:41:21.209Z,57.39
2023-01-19T18:43:48.351Z,56.99
2023-01-19T18:46:15.779Z,57.69
2023-01-19T18:48:42.816Z,57.95
2023-01-19T18:51:13.484Z,57.80
2023-01-19T18:53:40.673Z,58.10
2023-01-19T18:56:08.117Z,58.48
2023-01-19T18:58:38.139Z,57.66
2023-01-19T19:01:16.732Z,57.54
2023-01-19T19:03:43.798Z,58.16
2023-01-19T19:06:10.780Z,58.25
2023-01-19T19:08:37.883Z,59.07
2023-01-19T19:11:08.828Z,59.60
2023-01-19T19:13:36.863Z,59.43
2023-01-19T19:16:06.581Z,59.50
2023-01-19T19:18:35.761Z,59.44
2023-01-19T19:21:08.061Z,59.74
2023-01-19T19:23:35.484Z,59.06
2023-01-19T19:26:07.912Z,59.43
2023-01-19T19:28:36.712Z,59.66
2023-01-19T19:31:04.658Z,60.17
2023-01-19T19:33:31.727Z,60.08
2023-01-19T19:35:59.362Z,60.18
2023-01-19T19:38:27.362Z,59.87
2023-01-19T19:40:57.746Z,59.92
2023-01-19T19:43:25.044Z,59.37
2023-01-19T19:46:00.207Z,59.56
2023-01-19T19:48:28.161Z,59.50
2023-01-19T19:50:58.609Z,59.35
2023-01-19T19:53:27.279Z,59.10
2023-01-19T19:55:59.439Z,58.92
2023-01-19T19:58:27.829Z,59.04
2023-01-19T20:00:55.521Z,58.92
2023-01-19T20:03:26.771Z,59.04
2023-01-19T20:05:53.782Z,58.74
2023-01-19T20:08:20.724Z,58.51
2023-01-19T20:10:47.683Z,58.34
2023-01-19T20:13:18.033Z,58.44
2023-01-19T20:15:45.441Z,58.28
2023-01-19T20:18:12.480Z,58.64
2023-01-19T20:20:39.602Z,58.24
2023-01-19T20:23:06.608Z,58.11
2023-01-19T20:25:33.581Z,58.14
2023-01-19T20:28:00.610Z,58.09
2023-01-19T20:30:28.441Z,58.03
2023-01-19T20:32:55.524Z,58.02
2023-01-19T20:35:22.484Z,57.80
2023-01-19T20:37:49.463Z,57.45
2023-01-19T20:40:16.503Z,57.47
2023-01-19T20:42:44.581Z,57.17
2023-01-19T20:45:12.056Z,56.63
2023-01-19T20:47:39.091Z,56.46
2023-01-19T20:50:06.590Z,56.40
2023-01-19T20:52:35.636Z,56.02
2023-01-19T20:55:02.685Z,56.04
2023-01-19T20:57:29.730Z,55.71
2023-01-19T20:59:56.811Z,54.93
2023-01-19T21:02:23.802Z,55.17
2023-01-19T21:04:53.479Z,55.08
2023-01-19T21:07:20.562Z,55.44
2023-01-19T21:09:47.700Z,55.24
2023-01-19T21:12:16.206Z,54.93
2023-01-19T21:14:45.364Z,54.54
2023-01-19T21:17:12.303Z,54.84
2023-01-19T21:19:39.287Z,54.69
2023-01-19T21:22:06.412Z,54.80
2023-01-19T21:24:33.380Z,54.92
2023-01-19T21:27:00.359Z,55.23
2023-01-19T21:29:27.444Z,54.91
2023-01-19T21:31:54.431Z,54.92
2023-01-19T21:34:21.442Z,54.94
2023-01-19T21:36:48.463Z,55.21
2023-01-19T21:39:17.238Z,55.10
2023-01-19T21:41:45.338Z,55.20
2023-01-19T21:44:15.490Z,54.96
2023-01-19T21:46:42.592Z,55.09
2023-01-19T21:49:16.446Z,55.05
2023-01-19T21:51:43.643Z,55.09
2023-01-19T21:54:10.661Z,55.18
2023-01-19T21:56:38.209Z,55.02
2023-01-19T21:59:05.985Z,55.43
2023-01-19T22:01:34.214Z,55.45
2023-01-19T22:04:01.324Z,55.42
2023-01-19T22:06:29.000Z,55.70
2023-01-19T22:08:58.003Z,55.67
2023-01-19T22:11:25.138Z,55.90
2023-01-19T22:13:52.279Z,55.50
2023-01-19T22:16:21.282Z,55.72
2023-01-19T22:19:01.209Z,55.74
2023-01-19T22:21:31.583Z,55.84
2023-01-19T22:24:00.039Z,56.44
2023-01-19T22:26:29.005Z,56.46
2023-01-19T22:28:57.965Z,56.88
2023-01-19T22:31:26.712Z,56.92
2023-01-19T22:33:54.324Z,57.09
2023-01-19T22:36:29.651Z,57.22
2023-01-19T22:39:02.579Z,56.71
2023-01-19T22:41:32.210Z,56.83
2023-01-19T22:44:01.509Z,56.80
2023-01-19T22:46:31.481Z,56.55
2023-01-19T22:48:59.611Z,56.47
2023-01-19T22:51:29.596Z,56.41
2023-01-19T22:53:56.992Z,56.41
2023-01-19T22:56:29.446Z,56.42
2023-01-19T22:58:57.064Z,56.35
2023-01-19T23:01:33.796Z,56.21
2023-01-19T23:04:02.506Z,56.23
2023-01-19T23:06:32.866Z,56.27
2023-01-19T23:09:02.155Z,56.54
2023-01-19T23:11:40.791Z,57.36
2023-01-19T23:14:09.900Z,57.58
2023-01-19T23:16:36.881Z,57.81
2023-01-19T23:19:04.823Z,57.80
2023-01-19T23:21:32.680Z,58.17
2023-01-19T23:24:03.382Z,57.85
2023-01-19T23:26:31.594Z,58.22
2023-01-19T23:29:01.057Z,58.60
2023-01-19T23:31:33.345Z,58.52
2023-01-19T23:34:06.450Z,58.45
2023-01-19T23:36:35.081Z,58.57
2023-01-19T23:39:05.728Z,58.33
2023-01-19T23:41:36.777Z,58.33
2023-01-19T23:44:04.382Z,58.37
2023-01-19T23:46:31.501Z,58.08
2023-01-19T23:48:58.592Z,57.72
2023-01-19T23:51:28.451Z,57.94
2023-01-19T23:53:57.036Z,57.60
2023-01-19T23:56:25.110Z,57.61
2023-01-19T23:58:55.264Z,57.47
